sensor_id;sensor_type;location;lat;lon;timestamp;P1;durP1;ratioP1;P2;durP2;ratioP2
69321;SDS011;67799;51.974;4.612;2023-03-01T00:02:03;6.55;;;4.00;;
69321;SDS011;67799;51.974;4.612;2023-03-01T00:04:30;5.30;;;3.43;;
69321;SDS011;67799;51.974;4.612;2023-03-01T00:06:56;5.72;;;3.90;;
69321;SDS011;67799;51.974;4.612;2023-03-01T00:09:22;6.75;;;4.53;;
69321;SDS011;67799;51.974;4.612;2023-03-01T00:11:48;9.10;;;4.97;;
69321;SDS011;67799;51.974;4.612;2023-03-01T00:14:14;5.00;;;3.58;;
69321;SDS011;67799;51.974;4.612;2023-03-01T00:16:43;6.53;;;4.18;;
69321;SDS011;67799;51.974;4.612;2023-03-01T00:19:11;4.15;;;3.40;;
69321;SDS011;67799;51.974;4.612;2023-03-01T00:21:40;6.00;;;4.13;;
69321;SDS011;67799;51.974;4.612;2023-03-01T00:24:06;8.20;;;4.78;;
69321;SDS011;67799;51.974;4.612;2023-03-01T00:26:32;7.43;;;4.75;;
69321;SDS011;67799;51.974;4.612;2023-03-01T00:28:58;5.70;;;4.23;;
69321;SDS011;67799;51.974;4.612;2023-03-01T00:31:26;5.40;;;4.53;;
69321;SDS011;67799;51.974;4.612;2023-03-01T00:33:58;8.68;;;5.13;;
69321;SDS011;67799;51.974;4.612;2023-03-01T00:36:26;8.70;;;4.07;;
69321;SDS011;67799;51.974;4.612;2023-03-01T00:38:54;6.95;;;4.65;;
69321;SDS011;67799;51.974;4.612;2023-03-01T00:41:20;9.45;;;4.32;;
69321;SDS011;67799;51.974;4.612;2023-03-01T00:43:52;10.10;;;5.72;;
69321;SDS011;67799;51.974;4.612;2023-03-01T00:46:20;6.37;;;4.10;;
69321;SDS011;67799;51.974;4.612;2023-03-01T00:48:48;8.57;;;5.45;;
69321;SDS011;67799;51.974;4.612;2023-03-01T00:51:18;11.02;;;5.55;;
69321;SDS011;67799;51.974;4.612;2023-03-01T00:53:47;5.03;;;3.57;;
69321;SDS011;67799;51.974;4.612;2023-03-01T00:56:15;7.18;;;4.85;;
69321;SDS011;67799;51.974;4.612;2023-03-01T00:58:42;8.30;;;5.45;;
69321;SDS011;67799;51.974;4.612;2023-03-01T01:01:09;7.47;;;4.13;;
69321;SDS011;67799;51.974;4.612;2023-03-01T01:03:54;9.23;;;5.32;;
69321;SDS011;67799;51.974;4.612;2023-03-01T01:06:23;6.38;;;4.55;;
69321;SDS011;67799;51.974;4.612;2023-03-01T01:08:51;7.82;;;4.53;;
69321;SDS011;67799;51.974;4.612;2023-03-01T02:00:36;8.15;;;3.72;;
69321;SDS011;67799;51.974;4.612;2023-03-01T02:03:17;7.23;;;4.80;;
69321;SDS011;67799;51.974;4.612;2023-03-01T02:06:03;10.70;;;4.32;;
69321;SDS011;67799;51.974;4.612;2023-03-01T02:08:37;6.57;;;4.80;;
69321;SDS011;67799;51.974;4.612;2023-03-01T02:11:06;10.83;;;5.63;;
69321;SDS011;67799;51.974;4.612;2023-03-01T02:13:34;9.75;;;4.90;;
69321;SDS011;67799;51.974;4.612;2023-03-01T02:16:02;6.20;;;3.85;;
69321;SDS011;67799;51.974;4.612;2023-03-01T02:18:30;8.15;;;5.07;;
69321;SDS011;67799;51.974;4.612;2023-03-01T02:21:00;7.63;;;5.27;;
69321;SDS011;67799;51.974;4.612;2023-03-01T02:23:52;9.45;;;4.10;;
69321;SDS011;67799;51.974;4.612;2023-03-01T02:26:23;5.50;;;3.70;;
69321;SDS011;67799;51.974;4.612;2023-03-01T02:29:03;6.17;;;4.10;;
69321;SDS011;67799;51.974;4.612;2023-03-01T02:31:30;7.63;;;5.75;;
69321;SDS011;67799;51.974;4.612;2023-03-01T02:34:28;8.10;;;4.90;;
69321;SDS011;67799;51.974;4.612;2023-03-01T02:36:58;8.40;;;4.80;;
69321;SDS011;67799;51.974;4.612;2023-03-01T02:39:37;5.55;;;4.07;;
69321;SDS011;67799;51.974;4.612;2023-03-01T02:42:09;8.25;;;5.03;;
69321;SDS011;67799;51.974;4.612;2023-03-01T02:44:39;7.82;;;5.20;;
69321;SDS011;67799;51.974;4.612;2023-03-01T02:47:05;11.17;;;5.80;;
69321;SDS011;67799;51.974;4.612;2023-03-01T02:49:32;9.05;;;4.85;;
69321;SDS011;67799;51.974;4.612;2023-03-01T02:55:06;6.37;;;3.87;;
69321;SDS011;67799;51.974;4.612;2023-03-01T02:57:35;14.27;;;7.28;;
69321;SDS011;67799;51.974;4.612;2023-03-01T03:00:08;8.85;;;5.22;;
69321;SDS011;67799;51.974;4.612;2023-03-01T03:02:47;11.33;;;6.33;;
69321;SDS011;67799;51.974;4.612;2023-03-01T03:05:21;10.25;;;6.30;;
69321;SDS011;67799;51.974;4.612;2023-03-01T03:07:52;9.48;;;6.30;;
69321;SDS011;67799;51.974;4.612;2023-03-01T03:10:28;7.68;;;5.60;;
69321;SDS011;67799;51.974;4.612;2023-03-01T03:13:00;8.73;;;5.47;;
69321;SDS011;67799;51.974;4.612;2023-03-01T03:15:30;9.27;;;6.05;;
69321;SDS011;67799;51.974;4.612;2023-03-01T03:17:57;9.73;;;6.28;;
69321;SDS011;67799;51.974;4.612;2023-03-01T03:20:24;11.87;;;6.67;;
69321;SDS011;67799;51.974;4.612;2023-03-01T03:22:52;9.68;;;5.18;;
69321;SDS011;67799;51.974;4.612;2023-03-01T03:25:20;10.43;;;5.45;;
69321;SDS011;67799;51.974;4.612;2023-03-01T03:27:48;9.20;;;4.73;;
69321;SDS011;67799;51.974;4.612;2023-03-01T03:30:16;8.95;;;5.25;;
69321;SDS011;67799;51.974;4.612;2023-03-01T03:32:44;12.35;;;8.07;;
69321;SDS011;67799;51.974;4.612;2023-03-01T03:35:21;12.10;;;7.00;;
69321;SDS011;67799;51.974;4.612;2023-03-01T03:37:53;12.67;;;6.40;;
69321;SDS011;67799;51.974;4.612;2023-03-01T03:40:41;7.90;;;4.78;;
69321;SDS011;67799;51.974;4.612;2023-03-01T03:43:15;9.45;;;5.20;;
69321;SDS011;67799;51.974;4.612;2023-03-01T03:45:44;8.10;;;5.53;;
69321;SDS011;67799;51.974;4.612;2023-03-01T03:48:11;10.00;;;5.30;;
69321;SDS011;67799;51.974;4.612;2023-03-01T03:50:37;8.02;;;5.15;;
69321;SDS011;67799;51.974;4.612;2023-03-01T03:53:08;11.97;;;5.80;;
69321;SDS011;67799;51.974;4.612;2023-03-01T03:55:36;9.32;;;5.75;;
69321;SDS011;67799;51.974;4.612;2023-03-01T03:58:05;14.73;;;6.43;;
69321;SDS011;67799;51.974;4.612;2023-03-01T04:00:36;9.98;;;5.90;;
69321;SDS011;67799;51.974;4.612;2023-03-01T04:03:04;10.73;;;6.33;;
69321;SDS011;67799;51.974;4.612;2023-03-01T04:05:30;9.52;;;5.80;;
69321;SDS011;67799;51.974;4.612;2023-03-01T04:07:56;9.48;;;5.68;;
69321;SDS011;67799;51.974;4.612;2023-03-01T04:10:39;11.73;;;6.13;;
69321;SDS011;67799;51.974;4.612;2023-03-01T04:13:09;11.48;;;6.75;;
69321;SDS011;67799;51.974;4.612;2023-03-01T04:15:37;9.35;;;6.85;;
69321;SDS011;67799;51.974;4.612;2023-03-01T04:18:03;10.17;;;5.67;;
69321;SDS011;67799;51.974;4.612;2023-03-01T04:20:30;11.38;;;6.05;;
69321;SDS011;67799;51.974;4.612;2023-03-01T04:22:59;10.55;;;5.88;;
69321;SDS011;67799;51.974;4.612;2023-03-01T04:28:19;8.47;;;6.03;;
69321;SDS011;67799;51.974;4.612;2023-03-01T04:30:52;5.78;;;3.50;;
69321;SDS011;67799;51.974;4.612;2023-03-01T04:33:19;9.32;;;4.25;;
69321;SDS011;67799;51.974;4.612;2023-03-01T04:35:45;5.87;;;3.90;;
69321;SDS011;67799;51.974;4.612;2023-03-01T04:38:14;9.60;;;5.07;;
69321;SDS011;67799;51.974;4.612;2023-03-01T04:40:41;37.25;;;5.93;;
69321;SDS011;67799;51.974;4.612;2023-03-01T04:43:08;13.73;;;5.23;;
69321;SDS011;67799;51.974;4.612;2023-03-01T04:45:35;11.38;;;6.18;;
69321;SDS011;67799;51.974;4.612;2023-03-01T04:48:02;10.23;;;6.25;;
69321;SDS011;67799;51.974;4.612;2023-03-01T04:50:29;10.77;;;6.85;;
69321;SDS011;67799;51.974;4.612;2023-03-01T04:52:55;9.40;;;5.47;;
69321;SDS011;67799;51.974;4.612;2023-03-01T04:55:24;5.93;;;4.43;;
69321;SDS011;67799;51.974;4.612;2023-03-01T04:57:51;6.43;;;4.00;;
69321;SDS011;67799;51.974;4.612;2023-03-01T05:00:18;4.33;;;3.23;;
69321;SDS011;67799;51.974;4.612;2023-03-01T05:02:48;7.75;;;4.47;;
69321;SDS011;67799;51.974;4.612;2023-03-01T05:05:28;14.40;;;5.20;;
69321;SDS011;67799;51.974;4.612;2023-03-01T05:08:00;7.23;;;4.57;;
69321;SDS011;67799;51.974;4.612;2023-03-01T05:10:29;13.80;;;5.63;;
69321;SDS011;67799;51.974;4.612;2023-03-01T05:12:57;10.20;;;5.25;;
69321;SDS011;67799;51.974;4.612;2023-03-01T05:15:24;6.20;;;3.97;;
69321;SDS011;67799;51.974;4.612;2023-03-01T05:17:54;10.20;;;5.27;;
69321;SDS011;67799;51.974;4.612;2023-03-01T05:20:23;12.27;;;5.50;;
69321;SDS011;67799;51.974;4.612;2023-03-01T05:22:52;6.45;;;4.53;;
69321;SDS011;67799;51.974;4.612;2023-03-01T05:25:22;7.53;;;5.10;;
69321;SDS011;67799;51.974;4.612;2023-03-01T05:27:48;9.43;;;5.05;;
69321;SDS011;67799;51.974;4.612;2023-03-01T05:30:14;8.93;;;4.65;;
69321;SDS011;67799;51.974;4.612;2023-03-01T05:32:44;10.17;;;5.57;;
69321;SDS011;67799;51.974;4.612;2023-03-01T05:35:12;8.30;;;5.30;;
69321;SDS011;67799;51.974;4.612;2023-03-01T05:37:42;7.72;;;5.10;;
69321;SDS011;67799;51.974;4.612;2023-03-01T05:40:10;5.47;;;4.38;;
69321;SDS011;67799;51.974;4.612;2023-03-01T05:42:50;10.67;;;4.57;;
69321;SDS011;67799;51.974;4.612;2023-03-01T05:45:20;10.70;;;5.72;;
69321;SDS011;67799;51.974;4.612;2023-03-01T05:47:48;16.85;;;6.00;;
69321;SDS011;67799;51.974;4.612;2023-03-01T05:50:15;9.57;;;5.57;;
69321;SDS011;67799;51.974;4.612;2023-03-01T05:52:46;7.80;;;5.43;;
69321;SDS011;67799;51.974;4.612;2023-03-01T05:55:15;8.57;;;5.30;;
69321;SDS011;67799;51.974;4.612;2023-03-01T05:57:42;6.10;;;4.83;;
69321;SDS011;67799;51.974;4.612;2023-03-01T06:00:08;6.88;;;4.50;;
69321;SDS011;67799;51.974;4.612;2023-03-01T06:02:38;10.27;;;4.68;;
69321;SDS011;67799;51.974;4.612;2023-03-01T06:05:05;7.53;;;4.60;;
69321;SDS011;67799;51.974;4.612;2023-03-01T06:07:33;8.88;;;4.72;;
69321;SDS011;67799;51.974;4.612;2023-03-01T06:09:58;9.02;;;5.38;;
69321;SDS011;67799;51.974;4.612;2023-03-01T06:12:24;8.02;;;6.28;;
69321;SDS011;67799;51.974;4.612;2023-03-01T06:14:50;11.03;;;5.10;;
69321;SDS011;67799;51.974;4.612;2023-03-01T06:17:16;8.02;;;4.80;;
69321;SDS011;67799;51.974;4.612;2023-03-01T06:19:42;4.80;;;3.50;;
69321;SDS011;67799;51.974;4.612;2023-03-01T06:22:08;9.35;;;4.40;;
69321;SDS011;67799;51.974;4.612;2023-03-01T06:24:34;11.02;;;6.28;;
69321;SDS011;67799;51.974;4.612;2023-03-01T06:26:59;6.17;;;4.27;;
69321;SDS011;67799;51.974;4.612;2023-03-01T06:29:25;9.17;;;4.83;;
69321;SDS011;67799;51.974;4.612;2023-03-01T06:31:51;8.02;;;4.47;;
69321;SDS011;67799;51.974;4.612;2023-03-01T06:34:17;9.88;;;4.68;;
69321;SDS011;67799;51.974;4.612;2023-03-01T06:36:43;7.47;;;4.87;;
69321;SDS011;67799;51.974;4.612;2023-03-01T06:39:09;8.65;;;5.95;;
69321;SDS011;67799;51.974;4.612;2023-03-01T06:41:35;7.40;;;5.05;;
69321;SDS011;67799;51.974;4.612;2023-03-01T06:44:01;11.03;;;4.83;;
69321;SDS011;67799;51.974;4.612;2023-03-01T06:46:27;10.68;;;6.05;;
69321;SDS011;67799;51.974;4.612;2023-03-01T06:48:53;11.55;;;6.22;;
69321;SDS011;67799;51.974;4.612;2023-03-01T06:51:19;8.47;;;5.33;;
69321;SDS011;67799;51.974;4.612;2023-03-01T06:53:45;8.95;;;6.13;;
69321;SDS011;67799;51.974;4.612;2023-03-01T06:56:11;10.18;;;6.63;;
69321;SDS011;67799;51.974;4.612;2023-03-01T06:58:37;7.70;;;5.33;;
69321;SDS011;67799;51.974;4.612;2023-03-01T07:01:07;9.88;;;6.32;;
69321;SDS011;67799;51.974;4.612;2023-03-01T07:03:33;10.98;;;6.05;;
69321;SDS011;67799;51.974;4.612;2023-03-01T07:05:59;9.37;;;5.33;;
69321;SDS011;67799;51.974;4.612;2023-03-01T07:08:25;10.48;;;6.00;;
69321;SDS011;67799;51.974;4.612;2023-03-01T07:10:57;11.77;;;6.22;;
69321;SDS011;67799;51.974;4.612;2023-03-01T07:13:24;10.97;;;5.60;;
69321;SDS011;67799;51.974;4.612;2023-03-01T07:15:50;10.05;;;5.70;;
69321;SDS011;67799;51.974;4.612;2023-03-01T07:18:15;7.25;;;5.18;;
69321;SDS011;67799;51.974;4.612;2023-03-01T07:20:41;8.90;;;5.80;;
69321;SDS011;67799;51.974;4.612;2023-03-01T07:23:07;9.40;;;6.70;;
69321;SDS011;67799;51.974;4.612;2023-03-01T07:25:33;6.90;;;4.68;;
69321;SDS011;67799;51.974;4.612;2023-03-01T07:27:59;10.13;;;6.63;;
69321;SDS011;67799;51.974;4.612;2023-03-01T07:30:25;7.65;;;5.03;;
69321;SDS011;67799;51.974;4.612;2023-03-01T07:32:53;10.27;;;6.00;;
69321;SDS011;67799;51.974;4.612;2023-03-01T07:35:20;10.00;;;6.60;;
69321;SDS011;67799;51.974;4.612;2023-03-01T07:37:47;9.35;;;5.53;;
69321;SDS011;67799;51.974;4.612;2023-03-01T07:40:13;12.13;;;6.05;;
69321;SDS011;67799;51.974;4.612;2023-03-01T07:42:39;9.35;;;6.00;;
69321;SDS011;67799;51.974;4.612;2023-03-01T07:45:05;9.10;;;5.07;;
69321;SDS011;67799;51.974;4.612;2023-03-01T07:47:31;9.63;;;6.25;;
69321;SDS011;67799;51.974;4.612;2023-03-01T07:49:57;9.35;;;5.78;;
69321;SDS011;67799;51.974;4.612;2023-03-01T07:52:23;9.70;;;5.57;;
69321;SDS011;67799;51.974;4.612;2023-03-01T07:54:49;9.50;;;5.63;;
69321;SDS011;67799;51.974;4.612;2023-03-01T07:57:15;6.07;;;3.95;;
69321;SDS011;67799;51.974;4.612;2023-03-01T07:59:41;8.60;;;5.37;;
69321;SDS011;67799;51.974;4.612;2023-03-01T08:02:08;12.57;;;6.72;;
69321;SDS011;67799;51.974;4.612;2023-03-01T08:04:35;8.88;;;4.97;;
69321;SDS011;67799;51.974;4.612;2023-03-01T08:07:01;7.70;;;5.07;;
69321;SDS011;67799;51.974;4.612;2023-03-01T08:09:29;9.27;;;5.68;;
69321;SDS011;67799;51.974;4.612;2023-03-01T08:11:56;7.80;;;4.38;;
69321;SDS011;67799;51.974;4.612;2023-03-01T08:14:25;7.30;;;4.57;;
69321;SDS011;67799;51.974;4.612;2023-03-01T08:16:51;4.80;;;3.85;;
69321;SDS011;67799;51.974;4.612;2023-03-01T08:19:17;8.27;;;4.13;;
69321;SDS011;67799;51.974;4.612;2023-03-01T08:21:43;5.73;;;3.97;;
69321;SDS011;67799;51.974;4.612;2023-03-01T08:24:09;7.20;;;4.43;;
69321;SDS011;67799;51.974;4.612;2023-03-01T08:26:35;12.20;;;4.38;;
69321;SDS011;67799;51.974;4.612;2023-03-01T08:29:02;9.13;;;4.93;;
69321;SDS011;67799;51.974;4.612;2023-03-01T08:31:32;5.13;;;3.65;;
69321;SDS011;67799;51.974;4.612;2023-03-01T08:34:07;4.68;;;3.50;;
69321;SDS011;67799;51.974;4.612;2023-03-01T08:36:36;7.90;;;4.50;;
69321;SDS011;67799;51.974;4.612;2023-03-01T08:39:04;6.88;;;3.85;;
69321;SDS011;67799;51.974;4.612;2023-03-01T08:41:30;9.70;;;4.13;;
69321;SDS011;67799;51.974;4.612;2023-03-01T08:43:56;7.30;;;4.28;;
69321;SDS011;67799;51.974;4.612;2023-03-01T08:46:29;6.37;;;4.07;;
69321;SDS011;67799;51.974;4.612;2023-03-01T08:48:57;4.53;;;3.45;;
69321;SDS011;67799;51.974;4.612;2023-03-01T08:51:23;3.83;;;2.85;;
69321;SDS011;67799;51.974;4.612;2023-03-01T08:53:50;5.57;;;4.23;;
69321;SDS011;67799;51.974;4.612;2023-03-01T08:56:17;5.88;;;3.75;;
69321;SDS011;67799;51.974;4.612;2023-03-01T08:58:44;6.35;;;3.42;;
69321;SDS011;67799;51.974;4.612;2023-03-01T09:01:12;4.37;;;2.80;;
69321;SDS011;67799;51.974;4.612;2023-03-01T09:03:39;4.07;;;3.00;;
69321;SDS011;67799;51.974;4.612;2023-03-01T09:06:06;4.63;;;3.30;;
69321;SDS011;67799;51.974;4.612;2023-03-01T09:08:40;5.15;;;3.35;;
69321;SDS011;67799;51.974;4.612;2023-03-01T09:11:11;4.20;;;2.80;;
69321;SDS011;67799;51.974;4.612;2023-03-01T09:13:38;3.83;;;3.08;;
69321;SDS011;67799;51.974;4.612;2023-03-01T09:16:05;4.30;;;2.92;;
69321;SDS011;67799;51.974;4.612;2023-03-01T09:18:32;4.67;;;2.97;;
69321;SDS011;67799;51.974;4.612;2023-03-01T09:21:13;3.97;;;3.08;;
69321;SDS011;67799;51.974;4.612;2023-03-01T09:23:41;5.70;;;3.50;;
69321;SDS011;67799;51.974;4.612;2023-03-01T09:26:12;4.97;;;3.00;;
69321;SDS011;67799;51.974;4.612;2023-03-01T09:28:42;5.05;;;3.75;;
69321;SDS011;67799;51.974;4.612;2023-03-01T09:31:09;4.53;;;3.42;;
69321;SDS011;67799;51.974;4.612;2023-03-01T09:33:38;4.68;;;2.97;;
69321;SDS011;67799;51.974;4.612;2023-03-01T09:36:12;3.83;;;2.97;;
69321;SDS011;67799;51.974;4.612;2023-03-01T09:38:39;5.55;;;3.33;;
69321;SDS011;67799;51.974;4.612;2023-03-01T09:41:10;5.93;;;3.25;;
69321;SDS011;67799;51.974;4.612;2023-03-01T09:43:44;3.40;;;2.60;;
69321;SDS011;67799;51.974;4.612;2023-03-01T09:46:19;6.28;;;4.25;;
69321;SDS011;67799;51.974;4.612;2023-03-01T09:48:52;6.55;;;3.15;;
69321;SDS011;67799;51.974;4.612;2023-03-01T09:51:32;4.07;;;3.57;;
69321;SDS011;67799;51.974;4.612;2023-03-01T09:54:03;5.75;;;3.67;;
69321;SDS011;67799;51.974;4.612;2023-03-01T09:56:36;3.65;;;2.70;;
69321;SDS011;67799;51.974;4.612;2023-03-01T10:05:21;4.80;;;2.72;;
69321;SDS011;67799;51.974;4.612;2023-03-01T10:08:48;6.22;;;3.60;;
69321;SDS011;67799;51.974;4.612;2023-03-01T10:11:04;5.30;;;3.37;;
69321;SDS011;67799;51.974;4.612;2023-03-01T10:13:46;4.95;;;3.13;;
69321;SDS011;67799;51.974;4.612;2023-03-01T10:19:27;6.50;;;3.93;;
69321;SDS011;67799;51.974;4.612;2023-03-01T10:22:02;4.72;;;3.70;;
69321;SDS011;67799;51.974;4.612;2023-03-01T10:24:56;4.45;;;3.35;;
69321;SDS011;67799;51.974;4.612;2023-03-01T10:27:25;5.22;;;3.55;;
69321;SDS011;67799;51.974;4.612;2023-03-01T10:32:20;5.80;;;4.07;;
69321;SDS011;67799;51.974;4.612;2023-03-01T10:34:47;6.20;;;3.75;;
69321;SDS011;67799;51.974;4.612;2023-03-01T10:37:14;10.17;;;4.10;;
69321;SDS011;67799;51.974;4.612;2023-03-01T10:39:56;9.57;;;4.90;;
69321;SDS011;67799;51.974;4.612;2023-03-01T10:42:47;5.95;;;4.32;;
69321;SDS011;67799;51.974;4.612;2023-03-01T10:45:19;7.10;;;4.53;;
69321;SDS011;67799;51.974;4.612;2023-03-01T10:48:12;4.65;;;3.53;;
69321;SDS011;67799;51.974;4.612;2023-03-01T10:51:14;4.70;;;3.78;;
69321;SDS011;67799;51.974;4.612;2023-03-01T10:53:42;6.85;;;4.60;;
69321;SDS011;67799;51.974;4.612;2023-03-01T10:56:14;6.33;;;4.00;;
69321;SDS011;67799;51.974;4.612;2023-03-01T10:59:03;5.63;;;3.53;;
69321;SDS011;67799;51.974;4.612;2023-03-01T11:01:32;6.38;;;3.53;;
69321;SDS011;67799;51.974;4.612;2023-03-01T11:04:10;10.53;;;4.10;;
69321;SDS011;67799;51.974;4.612;2023-03-01T11:06:39;4.78;;;3.72;;
69321;SDS011;67799;51.974;4.612;2023-03-01T11:09:18;5.57;;;3.35;;
69321;SDS011;67799;51.974;4.612;2023-03-01T11:11:46;6.30;;;3.97;;
69321;SDS011;67799;51.974;4.612;2023-03-01T11:14:20;7.00;;;4.47;;
69321;SDS011;67799;51.974;4.612;2023-03-01T11:16:48;3.78;;;3.17;;
69321;SDS011;67799;51.974;4.612;2023-03-01T11:19:25;5.47;;;4.05;;
69321;SDS011;67799;51.974;4.612;2023-03-01T11:27:08;5.35;;;3.63;;
69321;SDS011;67799;51.974;4.612;2023-03-01T11:29:42;6.60;;;4.00;;
69321;SDS011;67799;51.974;4.612;2023-03-01T11:32:17;5.75;;;4.10;;
69321;SDS011;67799;51.974;4.612;2023-03-01T11:37:41;7.33;;;4.30;;
69321;SDS011;67799;51.974;4.612;2023-03-01T11:40:23;4.78;;;3.22;;
69321;SDS011;67799;51.974;4.612;2023-03-01T11:43:20;6.28;;;3.70;;
69321;SDS011;67799;51.974;4.612;2023-03-01T11:49:02;5.87;;;3.70;;
69321;SDS011;67799;51.974;4.612;2023-03-01T11:52:02;6.82;;;3.33;;
69321;SDS011;67799;51.974;4.612;2023-03-01T12:00:20;4.75;;;3.38;;
69321;SDS011;67799;51.974;4.612;2023-03-01T12:08:30;5.30;;;3.53;;
69321;SDS011;67799;51.974;4.612;2023-03-01T12:11:23;8.30;;;4.15;;
69321;SDS011;67799;51.974;4.612;2023-03-01T12:27:41;6.45;;;3.95;;
69321;SDS011;67799;51.974;4.612;2023-03-01T12:38:06;7.15;;;4.10;;
69321;SDS011;67799;51.974;4.612;2023-03-01T12:46:31;5.65;;;4.22;;
69321;SDS011;67799;51.974;4.612;2023-03-01T12:49:31;6.88;;;4.07;;
69321;SDS011;67799;51.974;4.612;2023-03-01T12:54:35;6.35;;;4.43;;
69321;SDS011;67799;51.974;4.612;2023-03-01T13:02:36;6.45;;;4.18;;
69321;SDS011;67799;51.974;4.612;2023-03-01T13:07:55;4.75;;;4.22;;
69321;SDS011;67799;51.974;4.612;2023-03-01T13:17:53;5.07;;;3.70;;
69321;SDS011;67799;51.974;4.612;2023-03-01T13:20:34;5.03;;;3.72;;
69321;SDS011;67799;51.974;4.612;2023-03-01T13:33:52;4.83;;;3.73;;
69321;SDS011;67799;51.974;4.612;2023-03-01T13:46:59;6.28;;;3.83;;
69321;SDS011;67799;51.974;4.612;2023-03-01T13:49:42;7.00;;;3.80;;
69321;SDS011;67799;51.974;4.612;2023-03-01T13:57:43;5.00;;;3.55;;
69321;SDS011;67799;51.974;4.612;2023-03-01T14:00:34;6.07;;;3.93;;
69321;SDS011;67799;51.974;4.612;2023-03-01T14:03:08;4.68;;;2.97;;
69321;SDS011;67799;51.974;4.612;2023-03-01T14:05:43;5.00;;;2.80;;
69321;SDS011;67799;51.974;4.612;2023-03-01T14:08:29;4.60;;;3.30;;
69321;SDS011;67799;51.974;4.612;2023-03-01T14:11:10;5.90;;;3.37;;
69321;SDS011;67799;51.974;4.612;2023-03-01T14:19:58;4.73;;;3.23;;
69321;SDS011;67799;51.974;4.612;2023-03-01T14:22:30;4.85;;;2.97;;
69321;SDS011;67799;51.974;4.612;2023-03-01T14:24:59;5.25;;;3.40;;
69321;SDS011;67799;51.974;4.612;2023-03-01T14:27:26;6.77;;;3.50;;
69321;SDS011;67799;51.974;4.612;2023-03-01T14:30:00;4.50;;;3.00;;
69321;SDS011;67799;51.974;4.612;2023-03-01T14:32:29;5.10;;;3.70;;
69321;SDS011;67799;51.974;4.612;2023-03-01T14:34:58;3.42;;;2.63;;
69321;SDS011;67799;51.974;4.612;2023-03-01T14:37:27;5.17;;;3.07;;
69321;SDS011;67799;51.974;4.612;2023-03-01T14:39:58;4.78;;;2.75;;
69321;SDS011;67799;51.974;4.612;2023-03-01T14:42:26;4.28;;;3.05;;
69321;SDS011;67799;51.974;4.612;2023-03-01T14:45:01;5.97;;;3.43;;
69321;SDS011;67799;51.974;4.612;2023-03-01T14:47:28;5.25;;;3.38;;
69321;SDS011;67799;51.974;4.612;2023-03-01T14:50:21;3.60;;;3.05;;
69321;SDS011;67799;51.974;4.612;2023-03-01T14:52:46;5.87;;;3.33;;
69321;SDS011;67799;51.974;4.612;2023-03-01T14:55:19;4.05;;;2.83;;
69321;SDS011;67799;51.974;4.612;2023-03-01T14:57:50;4.50;;;3.00;;
69321;SDS011;67799;51.974;4.612;2023-03-01T15:00:24;6.00;;;3.38;;
69321;SDS011;67799;51.974;4.612;2023-03-01T15:02:56;3.80;;;2.60;;
69321;SDS011;67799;51.974;4.612;2023-03-01T15:05:27;4.25;;;3.05;;
69321;SDS011;67799;51.974;4.612;2023-03-01T15:07:55;4.15;;;2.80;;
69321;SDS011;67799;51.974;4.612;2023-03-01T15:10:25;3.63;;;2.83;;
69321;SDS011;67799;51.974;4.612;2023-03-01T15:12:56;3.72;;;2.90;;
69321;SDS011;67799;51.974;4.612;2023-03-01T15:15:35;4.28;;;3.13;;
69321;SDS011;67799;51.974;4.612;2023-03-01T15:18:16;3.10;;;2.70;;
69321;SDS011;67799;51.974;4.612;2023-03-01T15:20:44;4.40;;;3.03;;
69321;SDS011;67799;51.974;4.612;2023-03-01T15:23:17;6.03;;;3.92;;
69321;SDS011;67799;51.974;4.612;2023-03-01T15:25:51;4.07;;;2.63;;
69321;SDS011;67799;51.974;4.612;2023-03-01T15:28:29;4.33;;;3.00;;
69321;SDS011;67799;51.974;4.612;2023-03-01T15:31:01;4.97;;;3.50;;
69321;SDS011;67799;51.974;4.612;2023-03-01T15:33:29;3.40;;;2.88;;
69321;SDS011;67799;51.974;4.612;2023-03-01T15:35:57;3.83;;;2.50;;
69321;SDS011;67799;51.974;4.612;2023-03-01T15:41:01;3.83;;;3.10;;
69321;SDS011;67799;51.974;4.612;2023-03-01T15:46:04;3.63;;;2.88;;
69321;SDS011;67799;51.974;4.612;2023-03-01T15:48:30;4.07;;;3.25;;
69321;SDS011;67799;51.974;4.612;2023-03-01T15:50:56;2.97;;;2.45;;
69321;SDS011;67799;51.974;4.612;2023-03-01T15:53:23;6.00;;;3.40;;
69321;SDS011;67799;51.974;4.612;2023-03-01T15:55:51;8.35;;;3.55;;
69321;SDS011;67799;51.974;4.612;2023-03-01T15:58:18;4.93;;;2.60;;
69321;SDS011;67799;51.974;4.612;2023-03-01T16:00:46;4.33;;;2.87;;
69321;SDS011;67799;51.974;4.612;2023-03-01T16:03:14;3.25;;;2.80;;
69321;SDS011;67799;51.974;4.612;2023-03-01T16:05:47;3.38;;;2.92;;
69321;SDS011;67799;51.974;4.612;2023-03-01T16:08:14;3.07;;;2.37;;
69321;SDS011;67799;51.974;4.612;2023-03-01T16:10:40;3.47;;;2.67;;
69321;SDS011;67799;51.974;4.612;2023-03-01T16:13:09;3.50;;;2.60;;
69321;SDS011;67799;51.974;4.612;2023-03-01T16:15:35;7.43;;;3.50;;
69321;SDS011;67799;51.974;4.612;2023-03-01T16:18:03;5.25;;;2.83;;
69321;SDS011;67799;51.974;4.612;2023-03-01T16:20:30;7.40;;;3.63;;
69321;SDS011;67799;51.974;4.612;2023-03-01T16:22:58;7.47;;;3.25;;
69321;SDS011;67799;51.974;4.612;2023-03-01T16:25:25;3.80;;;2.60;;
69321;SDS011;67799;51.974;4.612;2023-03-01T16:27:51;3.78;;;2.75;;
69321;SDS011;67799;51.974;4.612;2023-03-01T16:30:18;4.80;;;3.85;;
69321;SDS011;67799;51.974;4.612;2023-03-01T16:32:46;4.67;;;3.20;;
69321;SDS011;67799;51.974;4.612;2023-03-01T16:35:15;3.35;;;2.55;;
69321;SDS011;67799;51.974;4.612;2023-03-01T16:37:43;5.03;;;3.13;;
69321;SDS011;67799;51.974;4.612;2023-03-01T16:40:19;10.23;;;3.07;;
69321;SDS011;67799;51.974;4.612;2023-03-01T16:42:52;4.72;;;3.17;;
69321;SDS011;67799;51.974;4.612;2023-03-01T16:45:18;4.97;;;2.95;;
69321;SDS011;67799;51.974;4.612;2023-03-01T16:47:44;4.87;;;3.27;;
69321;SDS011;67799;51.974;4.612;2023-03-01T16:50:11;5.35;;;3.10;;
69321;SDS011;67799;51.974;4.612;2023-03-01T16:52:37;6.22;;;3.30;;
69321;SDS011;67799;51.974;4.612;2023-03-01T16:55:04;7.25;;;4.22;;
69321;SDS011;67799;51.974;4.612;2023-03-01T16:57:33;3.43;;;2.50;;
69321;SDS011;67799;51.974;4.612;2023-03-01T16:59:59;4.65;;;3.17;;
69321;SDS011;67799;51.974;4.612;2023-03-01T17:02:25;5.97;;;3.28;;
69321;SDS011;67799;51.974;4.612;2023-03-01T17:04:52;3.67;;;2.80;;
69321;SDS011;67799;51.974;4.612;2023-03-01T17:07:19;7.63;;;3.60;;
69321;SDS011;67799;51.974;4.612;2023-03-01T17:09:45;4.10;;;2.80;;
69321;SDS011;67799;51.974;4.612;2023-03-01T17:12:14;8.70;;;3.60;;
69321;SDS011;67799;51.974;4.612;2023-03-01T17:14:41;7.32;;;3.50;;
69321;SDS011;67799;51.974;4.612;2023-03-01T17:17:08;4.63;;;3.33;;
69321;SDS011;67799;51.974;4.612;2023-03-01T17:19:34;3.78;;;3.03;;
69321;SDS011;67799;51.974;4.612;2023-03-01T17:22:03;5.63;;;3.50;;
69321;SDS011;67799;51.974;4.612;2023-03-01T17:24:32;4.85;;;3.40;;
69321;SDS011;67799;51.974;4.612;2023-03-01T17:26:58;7.72;;;3.88;;
69321;SDS011;67799;51.974;4.612;2023-03-01T17:29:24;7.13;;;3.23;;
69321;SDS011;67799;51.974;4.612;2023-03-01T17:31:50;5.28;;;3.67;;
69321;SDS011;67799;51.974;4.612;2023-03-01T17:34:16;3.97;;;3.47;;
69321;SDS011;67799;51.974;4.612;2023-03-01T17:36:42;4.03;;;2.50;;
69321;SDS011;67799;51.974;4.612;2023-03-01T17:39:09;4.63;;;2.90;;
69321;SDS011;67799;51.974;4.612;2023-03-01T17:41:35;6.83;;;3.27;;
69321;SDS011;67799;51.974;4.612;2023-03-01T17:44:01;4.68;;;3.20;;
69321;SDS011;67799;51.974;4.612;2023-03-01T17:46:27;4.40;;;2.92;;
69321;SDS011;67799;51.974;4.612;2023-03-01T17:48:53;4.20;;;3.07;;
69321;SDS011;67799;51.974;4.612;2023-03-01T17:51:19;5.93;;;2.72;;
69321;SDS011;67799;51.974;4.612;2023-03-01T17:53:45;3.22;;;2.70;;
69321;SDS011;67799;51.974;4.612;2023-03-01T17:56:11;6.38;;;3.50;;
69321;SDS011;67799;51.974;4.612;2023-03-01T17:58:37;3.43;;;2.43;;